sensor_id;sensor_type;location;lat;lon;timestamp;P1;P2;P0
30342;PMS5003;17145;49.902;8.680;2023-05-16T00:00:20;14;13;
30342;PMS5003;17145;49.902;8.680;2023-05-16T00:02:47;11;11;
30342;PMS5003;17145;49.902;8.680;2023-05-16T00:05:15;12;12;
30342;PMS5003;17145;49.902;8.680;2023-05-16T00:07:43;15;15;
30342;PMS5003;17145;49.902;8.680;2023-05-16T00:10:12;28;26;
30342;PMS5003;17145;49.902;8.680;2023-05-16T00:12:39;27;22;
30342;PMS5003;17145;49.902;8.680;2023-05-16T00:15:08;13;12;
30342;PMS5003;17145;49.902;8.680;2023-05-16T00:17:37;11;11;
30342;PMS5003;17145;49.902;8.680;2023-05-16T00:20:05;14;14;
30342;PMS5003;17145;49.902;8.680;2023-05-16T00:22:33;12;11;
30342;PMS5003;17145;49.902;8.680;2023-05-16T00:25:00;12;12;
30342;PMS5003;17145;49.902;8.680;2023-05-16T00:27:27;14;14;
30342;PMS5003;17145;49.902;8.680;2023-05-16T00:29:55;15;15;
30342;PMS5003;17145;49.902;8.680;2023-05-16T00:32:22;15;14;
30342;PMS5003;17145;49.902;8.680;2023-05-16T00:34:50;14;14;
30342;PMS5003;17145;49.902;8.680;2023-05-16T00:37:17;12;12;
30342;PMS5003;17145;49.902;8.680;2023-05-16T00:39:44;13;13;
30342;PMS5003;17145;49.902;8.680;2023-05-16T00:42:12;15;14;
30342;PMS5003;17145;49.902;8.680;2023-05-16T00:44:39;15;14;
30342;PMS5003;17145;49.902;8.680;2023-05-16T00:47:07;19;17;
30342;PMS5003;17145;49.902;8.680;2023-05-16T00:49:34;13;12;
30342;PMS5003;17145;49.902;8.680;2023-05-16T00:52:01;14;14;
30342;PMS5003;17145;49.902;8.680;2023-05-16T00:54:29;13;13;
30342;PMS5003;17145;49.902;8.680;2023-05-16T00:56:57;16;15;
30342;PMS5003;17145;49.902;8.680;2023-05-16T00:59:24;19;18;
30342;PMS5003;17145;49.902;8.680;2023-05-16T01:01:52;16;15;
30342;PMS5003;17145;49.902;8.680;2023-05-16T01:04:20;14;14;
30342;PMS5003;17145;49.902;8.680;2023-05-16T01:06:47;12;11;
30342;PMS5003;17145;49.902;8.680;2023-05-16T01:09:15;13;13;
30342;PMS5003;17145;49.902;8.680;2023-05-16T01:11:45;15;14;
30342;PMS5003;17145;49.902;8.680;2023-05-16T01:14:20;13;13;
30342;PMS5003;17145;49.902;8.680;2023-05-16T01:16:56;13;13;
30342;PMS5003;17145;49.902;8.680;2023-05-16T01:19:35;14;14;
30342;PMS5003;17145;49.902;8.680;2023-05-16T01:22:19;13;13;
30342;PMS5003;17145;49.902;8.680;2023-05-16T01:24:58;16;15;
30342;PMS5003;17145;49.902;8.680;2023-05-16T01:27:31;14;13;
30342;PMS5003;17145;49.902;8.680;2023-05-16T01:32:41;13;13;
30342;PMS5003;17145;49.902;8.680;2023-05-16T01:35:09;11;10;
30342;PMS5003;17145;49.902;8.680;2023-05-16T01:37:41;9;9;
30342;PMS5003;17145;49.902;8.680;2023-05-16T01:40:15;12;12;
30342;PMS5003;17145;49.902;8.680;2023-05-16T01:42:48;12;12;
30342;PMS5003;17145;49.902;8.680;2023-05-16T01:45:19;13;13;
30342;PMS5003;17145;49.902;8.680;2023-05-16T01:47:51;12;12;
30342;PMS5003;17145;49.902;8.680;2023-05-16T01:50:23;13;13;
30342;PMS5003;17145;49.902;8.680;2023-05-16T01:52:55;11;11;
30342;PMS5003;17145;49.902;8.680;2023-05-16T01:55:29;11;11;
30342;PMS5003;17145;49.902;8.680;2023-05-16T01:58:03;13;13;
30342;PMS5003;17145;49.902;8.680;2023-05-16T02:00:33;12;12;
30342;PMS5003;17145;49.902;8.680;2023-05-16T02:03:00;14;12;
30342;PMS5003;17145;49.902;8.680;2023-05-16T02:05:28;11;10;
30342;PMS5003;17145;49.902;8.680;2023-05-16T02:07:55;10;9;
30342;PMS5003;17145;49.902;8.680;2023-05-16T02:10:23;11;11;
30342;PMS5003;17145;49.902;8.680;2023-05-16T02:12:51;13;13;
30342;PMS5003;17145;49.902;8.680;2023-05-16T02:15:18;12;12;
30342;PMS5003;17145;49.902;8.680;2023-05-16T02:17:46;10;10;
30342;PMS5003;17145;49.902;8.680;2023-05-16T02:20:13;14;14;
30342;PMS5003;17145;49.902;8.680;2023-05-16T02:22:41;13;11;
30342;PMS5003;17145;49.902;8.680;2023-05-16T02:25:08;11;11;
30342;PMS5003;17145;49.902;8.680;2023-05-16T02:27:36;11;11;
30342;PMS5003;17145;49.902;8.680;2023-05-16T02:30:03;12;12;
30342;PMS5003;17145;49.902;8.680;2023-05-16T02:32:32;14;14;
30342;PMS5003;17145;49.902;8.680;2023-05-16T02:34:59;12;11;
30342;PMS5003;17145;49.902;8.680;2023-05-16T02:37:27;14;13;
30342;PMS5003;17145;49.902;8.680;2023-05-16T02:39:54;13;13;
30342;PMS5003;17145;49.902;8.680;2023-05-16T02:42:21;11;11;
30342;PMS5003;17145;49.902;8.680;2023-05-16T02:44:49;12;11;
30342;PMS5003;17145;49.902;8.680;2023-05-16T02:47:16;13;13;
30342;PMS5003;17145;49.902;8.680;2023-05-16T02:49:44;11;10;
30342;PMS5003;17145;49.902;8.680;2023-05-16T02:52:11;13;12;
30342;PMS5003;17145;49.902;8.680;2023-05-16T02:54:39;13;12;
30342;PMS5003;17145;49.902;8.680;2023-05-16T02:57:06;11;11;
30342;PMS5003;17145;49.902;8.680;2023-05-16T02:59:33;9;9;
30342;PMS5003;17145;49.902;8.680;2023-05-16T03:02:01;13;12;
30342;PMS5003;17145;49.902;8.680;2023-05-16T03:04:29;11;9;
30342;PMS5003;17145;49.902;8.680;2023-05-16T03:06:56;12;12;
30342;PMS5003;17145;49.902;8.680;2023-05-16T03:09:23;14;12;
30342;PMS5003;17145;49.902;8.680;2023-05-16T03:11:51;11;11;
30342;PMS5003;17145;49.902;8.680;2023-05-16T03:14:18;13;12;
30342;PMS5003;17145;49.902;8.680;2023-05-16T03:16:45;12;12;
30342;PMS5003;17145;49.902;8.680;2023-05-16T03:19:13;11;10;
30342;PMS5003;17145;49.902;8.680;2023-05-16T03:21:40;15;15;
30342;PMS5003;17145;49.902;8.680;2023-05-16T03:24:08;12;11;
30342;PMS5003;17145;49.902;8.680;2023-05-16T03:26:36;10;10;
30342;PMS5003;17145;49.902;8.680;2023-05-16T03:29:04;12;12;
30342;PMS5003;17145;49.902;8.680;2023-05-16T03:31:31;10;10;
30342;PMS5003;17145;49.902;8.680;2023-05-16T03:33:58;11;11;
30342;PMS5003;17145;49.902;8.680;2023-05-16T03:36:26;10;10;
30342;PMS5003;17145;49.902;8.680;2023-05-16T03:38:53;12;12;
30342;PMS5003;17145;49.902;8.680;2023-05-16T03:41:21;10;9;
30342;PMS5003;17145;49.902;8.680;2023-05-16T03:43:48;11;11;
30342;PMS5003;17145;49.902;8.680;2023-05-16T03:46:16;10;10;
30342;PMS5003;17145;49.902;8.680;2023-05-16T03:48:43;10;10;
30342;PMS5003;17145;49.902;8.680;2023-05-16T03:51:10;12;11;
30342;PMS5003;17145;49.902;8.680;2023-05-16T03:53:38;13;12;
30342;PMS5003;17145;49.902;8.680;2023-05-16T03:56:05;27;25;
30342;PMS5003;17145;49.902;8.680;2023-05-16T03:58:33;11;11;
30342;PMS5003;17145;49.902;8.680;2023-05-16T04:01:00;11;11;
30342;PMS5003;17145;49.902;8.680;2023-05-16T04:03:28;12;12;
30342;PMS5003;17145;49.902;8.680;2023-05-16T04:05:56;10;10;
30342;PMS5003;17145;49.902;8.680;2023-05-16T04:08:23;14;14;
30342;PMS5003;17145;49.902;8.680;2023-05-16T04:10:51;12;12;
30342;PMS5003;17145;49.902;8.680;2023-05-16T04:13:18;11;11;
30342;PMS5003;17145;49.902;8.680;2023-05-16T04:15:46;10;10;
30342;PMS5003;17145;49.902;8.680;2023-05-16T04:18:13;10;10;
30342;PMS5003;17145;49.902;8.680;2023-05-16T04:20:41;10;10;
30342;PMS5003;17145;49.902;8.680;2023-05-16T04:23:08;10;10;
30342;PMS5003;17145;49.902;8.680;2023-05-16T04:25:36;8;8;
30342;PMS5003;17145;49.902;8.680;2023-05-16T04:28:04;12;12;
30342;PMS5003;17145;49.902;8.680;2023-05-16T04:30:31;9;9;
30342;PMS5003;17145;49.902;8.680;2023-05-16T04:32:59;10;10;
30342;PMS5003;17145;49.902;8.680;2023-05-16T04:35:27;10;10;
30342;PMS5003;17145;49.902;8.680;2023-05-16T04:37:54;10;10;
30342;PMS5003;17145;49.902;8.680;2023-05-16T04:40:21;18;18;
30342;PMS5003;17145;49.902;8.680;2023-05-16T04:42:49;21;20;
30342;PMS5003;17145;49.902;8.680;2023-05-16T04:45:16;11;11;
30342;PMS5003;17145;49.902;8.680;2023-05-16T04:47:44;10;10;
30342;PMS5003;17145;49.902;8.680;2023-05-16T04:50:11;9;8;
30342;PMS5003;17145;49.902;8.680;2023-05-16T04:52:39;9;9;
30342;PMS5003;17145;49.902;8.680;2023-05-16T04:55:06;11;11;
30342;PMS5003;17145;49.902;8.680;2023-05-16T04:57:35;10;10;
30342;PMS5003;17145;49.902;8.680;2023-05-16T05:00:02;11;10;
30342;PMS5003;17145;49.902;8.680;2023-05-16T05:02:30;9;9;
30342;PMS5003;17145;49.902;8.680;2023-05-16T05:04:58;10;10;
30342;PMS5003;17145;49.902;8.680;2023-05-16T05:07:25;10;10;
30342;PMS5003;17145;49.902;8.680;2023-05-16T05:09:53;9;9;
30342;PMS5003;17145;49.902;8.680;2023-05-16T05:12:20;10;10;
30342;PMS5003;17145;49.902;8.680;2023-05-16T05:14:48;11;11;
30342;PMS5003;17145;49.902;8.680;2023-05-16T05:17:16;10;10;
30342;PMS5003;17145;49.902;8.680;2023-05-16T05:19:43;9;9;
30342;PMS5003;17145;49.902;8.680;2023-05-16T05:22:11;12;12;
30342;PMS5003;17145;49.902;8.680;2023-05-16T05:24:38;10;10;
30342;PMS5003;17145;49.902;8.680;2023-05-16T05:27:06;15;15;
30342;PMS5003;17145;49.902;8.680;2023-05-16T05:29:33;18;18;
30342;PMS5003;17145;49.902;8.680;2023-05-16T05:32:00;18;17;
30342;PMS5003;17145;49.902;8.680;2023-05-16T05:34:28;19;18;
30342;PMS5003;17145;49.902;8.680;2023-05-16T05:36:55;24;24;
30342;PMS5003;17145;49.902;8.680;2023-05-16T05:39:23;11;11;
30342;PMS5003;17145;49.902;8.680;2023-05-16T05:41:50;10;10;
30342;PMS5003;17145;49.902;8.680;2023-05-16T05:44:18;10;10;
30342;PMS5003;17145;49.902;8.680;2023-05-16T05:46:45;12;11;
30342;PMS5003;17145;49.902;8.680;2023-05-16T05:49:13;11;10;
30342;PMS5003;17145;49.902;8.680;2023-05-16T05:51:40;10;10;
30342;PMS5003;17145;49.902;8.680;2023-05-16T05:54:08;11;11;
30342;PMS5003;17145;49.902;8.680;2023-05-16T05:56:36;12;11;
30342;PMS5003;17145;49.902;8.680;2023-05-16T05:59:04;12;12;
30342;PMS5003;17145;49.902;8.680;2023-05-16T06:01:31;11;11;
30342;PMS5003;17145;49.902;8.680;2023-05-16T06:03:58;10;10;
30342;PMS5003;17145;49.902;8.680;2023-05-16T06:06:26;9;9;
30342;PMS5003;17145;49.902;8.680;2023-05-16T06:08:53;11;11;
30342;PMS5003;17145;49.902;8.680;2023-05-16T06:11:20;12;11;
30342;PMS5003;17145;49.902;8.680;2023-05-16T06:13:48;11;11;
30342;PMS5003;17145;49.902;8.680;2023-05-16T06:16:15;12;12;
30342;PMS5003;17145;49.902;8.680;2023-05-16T06:18:43;13;12;
30342;PMS5003;17145;49.902;8.680;2023-05-16T06:21:10;11;10;
30342;PMS5003;17145;49.902;8.680;2023-05-16T06:23:37;13;12;
30342;PMS5003;17145;49.902;8.680;2023-05-16T06:26:05;11;11;
30342;PMS5003;17145;49.902;8.680;2023-05-16T06:28:32;10;10;
30342;PMS5003;17145;49.902;8.680;2023-05-16T06:31:00;10;10;
30342;PMS5003;17145;49.902;8.680;2023-05-16T06:33:27;12;11;
30342;PMS5003;17145;49.902;8.680;2023-05-16T06:35:54;13;13;
30342;PMS5003;17145;49.902;8.680;2023-05-16T06:38:22;14;13;
30342;PMS5003;17145;49.902;8.680;2023-05-16T06:40:49;14;14;
30342;PMS5003;17145;49.902;8.680;2023-05-16T06:43:16;15;14;
30342;PMS5003;17145;49.902;8.680;2023-05-16T06:45:44;15;15;
30342;PMS5003;17145;49.902;8.680;2023-05-16T06:48:12;15;13;
30342;PMS5003;17145;49.902;8.680;2023-05-16T06:50:40;13;13;
30342;PMS5003;17145;49.902;8.680;2023-05-16T06:53:07;13;13;
30342;PMS5003;17145;49.902;8.680;2023-05-16T06:55:35;14;13;
30342;PMS5003;17145;49.902;8.680;2023-05-16T06:58:02;11;11;
30342;PMS5003;17145;49.902;8.680;2023-05-16T07:00:29;13;13;
30342;PMS5003;17145;49.902;8.680;2023-05-16T07:02:57;13;13;
30342;PMS5003;17145;49.902;8.680;2023-05-16T07:05:24;13;11;
30342;PMS5003;17145;49.902;8.680;2023-05-16T07:07:51;12;12;
30342;PMS5003;17145;49.902;8.680;2023-05-16T07:10:19;13;13;
30342;PMS5003;17145;49.902;8.680;2023-05-16T07:12:47;10;10;
30342;PMS5003;17145;49.902;8.680;2023-05-16T07:15:14;12;11;
30342;PMS5003;17145;49.902;8.680;2023-05-16T07:17:41;15;15;
30342;PMS5003;17145;49.902;8.680;2023-05-16T07:20:09;12;12;
30342;PMS5003;17145;49.902;8.680;2023-05-16T07:22:36;11;11;
30342;PMS5003;17145;49.902;8.680;2023-05-16T07:25:04;13;13;
30342;PMS5003;17145;49.902;8.680;2023-05-16T07:27:33;14;14;
30342;PMS5003;17145;49.902;8.680;2023-05-16T07:30:00;16;15;
30342;PMS5003;17145;49.902;8.680;2023-05-16T07:32:28;18;16;
30342;PMS5003;17145;49.902;8.680;2023-05-16T07:34:55;18;16;
30342;PMS5003;17145;49.902;8.680;2023-05-16T07:37:23;15;15;
30342;PMS5003;17145;49.902;8.680;2023-05-16T07:39:50;24;22;
30342;PMS5003;17145;49.902;8.680;2023-05-16T07:42:17;13;13;
30342;PMS5003;17145;49.902;8.680;2023-05-16T07:44:45;17;16;
30342;PMS5003;17145;49.902;8.680;2023-05-16T07:47:13;12;12;
30342;PMS5003;17145;49.902;8.680;2023-05-16T07:49:40;12;12;
30342;PMS5003;17145;49.902;8.680;2023-05-16T07:52:08;12;12;
30342;PMS5003;17145;49.902;8.680;2023-05-16T07:54:35;12;12;
30342;PMS5003;17145;49.902;8.680;2023-05-16T07:57:03;14;14;
30342;PMS5003;17145;49.902;8.680;2023-05-16T07:59:31;12;12;
30342;PMS5003;17145;49.902;8.680;2023-05-16T08:01:59;12;12;
30342;PMS5003;17145;49.902;8.680;2023-05-16T08:04:26;16;15;
30342;PMS5003;17145;49.902;8.680;2023-05-16T08:06:54;15;15;
30342;PMS5003;17145;49.902;8.680;2023-05-16T08:09:21;15;14;
30342;PMS5003;17145;49.902;8.680;2023-05-16T08:11:48;19;19;
30342;PMS5003;17145;49.902;8.680;2023-05-16T08:14:16;16;15;
30342;PMS5003;17145;49.902;8.680;2023-05-16T08:16:43;13;13;
30342;PMS5003;17145;49.902;8.680;2023-05-16T08:19:10;14;14;
30342;PMS5003;17145;49.902;8.680;2023-05-16T08:21:38;14;14;
30342;PMS5003;17145;49.902;8.680;2023-05-16T08:24:05;15;14;
30342;PMS5003;17145;49.902;8.680;2023-05-16T08:26:33;16;15;
30342;PMS5003;17145;49.902;8.680;2023-05-16T08:29:00;15;14;
30342;PMS5003;17145;49.902;8.680;2023-05-16T08:31:28;14;14;
30342;PMS5003;17145;49.902;8.680;2023-05-16T08:33:55;13;13;
30342;PMS5003;17145;49.902;8.680;2023-05-16T08:36:22;15;15;
30342;PMS5003;17145;49.902;8.680;2023-05-16T08:38:50;12;12;
30342;PMS5003;17145;49.902;8.680;2023-05-16T08:41:17;13;13;
30342;PMS5003;17145;49.902;8.680;2023-05-16T08:43:45;13;13;
30342;PMS5003;17145;49.902;8.680;2023-05-16T08:46:12;13;13;
30342;PMS5003;17145;49.902;8.680;2023-05-16T08:48:39;12;12;
30342;PMS5003;17145;49.902;8.680;2023-05-16T08:51:11;13;13;
30342;PMS5003;17145;49.902;8.680;2023-05-16T08:53:44;13;13;
30342;PMS5003;17145;49.902;8.680;2023-05-16T08:56:16;12;12;
30342;PMS5003;17145;49.902;8.680;2023-05-16T08:58:44;13;13;
30342;PMS5003;17145;49.902;8.680;2023-05-16T09:01:12;13;13;
30342;PMS5003;17145;49.902;8.680;2023-05-16T09:03:40;15;13;
30342;PMS5003;17145;49.902;8.680;2023-05-16T09:06:08;14;13;
30342;PMS5003;17145;49.902;8.680;2023-05-16T09:08:36;15;15;
30342;PMS5003;17145;49.902;8.680;2023-05-16T09:11:03;14;13;
30342;PMS5003;17145;49.902;8.680;2023-05-16T09:13:31;13;13;
30342;PMS5003;17145;49.902;8.680;2023-05-16T09:16:08;16;15;
30342;PMS5003;17145;49.902;8.680;2023-05-16T09:18:36;14;14;
30342;PMS5003;17145;49.902;8.680;2023-05-16T09:21:04;13;13;
30342;PMS5003;17145;49.902;8.680;2023-05-16T09:23:32;14;14;
30342;PMS5003;17145;49.902;8.680;2023-05-16T09:26:00;15;15;
30342;PMS5003;17145;49.902;8.680;2023-05-16T09:28:27;15;15;
30342;PMS5003;17145;49.902;8.680;2023-05-16T09:30:55;15;14;
30342;PMS5003;17145;49.902;8.680;2023-05-16T09:33:24;15;15;
30342;PMS5003;17145;49.902;8.680;2023-05-16T09:35:54;16;15;
30342;PMS5003;17145;49.902;8.680;2023-05-16T09:38:22;16;16;
30342;PMS5003;17145;49.902;8.680;2023-05-16T09:40:51;18;18;
30342;PMS5003;17145;49.902;8.680;2023-05-16T09:43:20;16;16;
30342;PMS5003;17145;49.902;8.680;2023-05-16T09:45:51;20;19;
30342;PMS5003;17145;49.902;8.680;2023-05-16T09:48:19;16;15;
30342;PMS5003;17145;49.902;8.680;2023-05-16T09:50:47;20;20;
30342;PMS5003;17145;49.902;8.680;2023-05-16T09:53:16;19;19;
30342;PMS5003;17145;49.902;8.680;2023-05-16T09:55:44;20;19;
30342;PMS5003;17145;49.902;8.680;2023-05-16T09:58:11;21;20;
30342;PMS5003;17145;49.902;8.680;2023-05-16T10:00:42;21;21;
30342;PMS5003;17145;49.902;8.680;2023-05-16T10:03:10;27;27;
30342;PMS5003;17145;49.902;8.680;2023-05-16T10:05:39;23;22;
30342;PMS5003;17145;49.902;8.680;2023-05-16T10:08:06;32;31;
30342;PMS5003;17145;49.902;8.680;2023-05-16T10:10:35;40;40;
30342;PMS5003;17145;49.902;8.680;2023-05-16T10:13:04;20;19;
30342;PMS5003;17145;49.902;8.680;2023-05-16T10:15:35;18;16;
30342;PMS5003;17145;49.902;8.680;2023-05-16T10:18:03;19;19;
30342;PMS5003;17145;49.902;8.680;2023-05-16T10:20:33;17;17;
30342;PMS5003;17145;49.902;8.680;2023-05-16T10:23:00;19;19;
30342;PMS5003;17145;49.902;8.680;2023-05-16T10:25:31;14;14;
30342;PMS5003;17145;49.902;8.680;2023-05-16T10:28:02;17;15;
30342;PMS5003;17145;49.902;8.680;2023-05-16T10:30:30;19;18;
30342;PMS5003;17145;49.902;8.680;2023-05-16T10:33:00;19;19;
30342;PMS5003;17145;49.902;8.680;2023-05-16T10:35:27;18;17;
30342;PMS5003;17145;49.902;8.680;2023-05-16T10:37:55;19;19;
30342;PMS5003;17145;49.902;8.680;2023-05-16T10:40:23;21;20;
30342;PMS5003;17145;49.902;8.680;2023-05-16T10:42:54;21;20;
30342;PMS5003;17145;49.902;8.680;2023-05-16T10:45:22;22;19;
30342;PMS5003;17145;49.902;8.680;2023-05-16T10:47:51;15;14;
30342;PMS5003;17145;49.902;8.680;2023-05-16T10:55:43;15;13;
30342;PMS5003;17145;49.902;8.680;2023-05-16T10:58:11;17;15;
30342;PMS5003;17145;49.902;8.680;2023-05-16T11:00:38;17;17;
30342;PMS5003;17145;49.902;8.680;2023-05-16T11:03:06;17;17;
30342;PMS5003;17145;49.902;8.680;2023-05-16T11:05:43;17;17;
30342;PMS5003;17145;49.902;8.680;2023-05-16T11:08:17;17;17;
30342;PMS5003;17145;49.902;8.680;2023-05-16T11:10:45;17;15;
30342;PMS5003;17145;49.902;8.680;2023-05-16T11:13:12;16;16;
30342;PMS5003;17145;49.902;8.680;2023-05-16T11:15:40;20;16;
30342;PMS5003;17145;49.902;8.680;2023-05-16T11:18:07;17;15;
30342;PMS5003;17145;49.902;8.680;2023-05-16T11:20:40;17;15;
30342;PMS5003;17145;49.902;8.680;2023-05-16T11:25:47;17;16;
30342;PMS5003;17145;49.902;8.680;2023-05-16T11:28:18;14;12;
30342;PMS5003;17145;49.902;8.680;2023-05-16T11:30:47;17;16;
30342;PMS5003;17145;49.902;8.680;2023-05-16T11:33:15;16;16;
30342;PMS5003;17145;49.902;8.680;2023-05-16T11:35:44;14;14;
30342;PMS5003;17145;49.902;8.680;2023-05-16T11:38:25;19;18;
30342;PMS5003;17145;49.902;8.680;2023-05-16T11:41:00;14;14;
30342;PMS5003;17145;49.902;8.680;2023-05-16T11:43:28;14;14;
30342;PMS5003;17145;49.902;8.680;2023-05-16T11:45:55;14;14;
30342;PMS5003;17145;49.902;8.680;2023-05-16T11:48:23;17;16;
30342;PMS5003;17145;49.902;8.680;2023-05-16T11:50:50;19;18;
30342;PMS5003;17145;49.902;8.680;2023-05-16T11:53:18;15;15;
30342;PMS5003;17145;49.902;8.680;2023-05-16T11:55:46;15;15;
30342;PMS5003;17145;49.902;8.680;2023-05-16T11:58:14;17;16;
30342;PMS5003;17145;49.902;8.680;2023-05-16T12:00:46;19;19;
30342;PMS5003;17145;49.902;8.680;2023-05-16T12:03:14;30;30;
30342;PMS5003;17145;49.902;8.680;2023-05-16T12:08:16;25;25;
30342;PMS5003;17145;49.902;8.680;2023-05-16T12:10:43;27;21;
30342;PMS5003;17145;49.902;8.680;2023-05-16T12:13:10;30;29;
30342;PMS5003;17145;49.902;8.680;2023-05-16T12:15:38;22;20;
30342;PMS5003;17145;49.902;8.680;2023-05-16T12:18:06;25;19;
30342;PMS5003;17145;49.902;8.680;2023-05-16T12:20:33;37;34;
30342;PMS5003;17145;49.902;8.680;2023-05-16T12:23:01;31;28;
30342;PMS5003;17145;49.902;8.680;2023-05-16T12:25:29;20;20;
30342;PMS5003;17145;49.902;8.680;2023-05-16T12:27:58;23;20;
30342;PMS5003;17145;49.902;8.680;2023-05-16T12:30:27;23;21;
30342;PMS5003;17145;49.902;8.680;2023-05-16T12:32:56;34;34;
30342;PMS5003;17145;49.902;8.680;2023-05-16T12:35:24;25;19;
30342;PMS5003;17145;49.902;8.680;2023-05-16T12:37:51;40;40;
30342;PMS5003;17145;49.902;8.680;2023-05-16T12:40:19;48;47;
30342;PMS5003;17145;49.902;8.680;2023-05-16T12:42:48;24;22;
30342;PMS5003;17145;49.902;8.680;2023-05-16T12:45:16;27;24;
30342;PMS5003;17145;49.902;8.680;2023-05-16T12:47:43;40;40;
30342;PMS5003;17145;49.902;8.680;2023-05-16T12:50:11;17;17;
30342;PMS5003;17145;49.902;8.680;2023-05-16T12:52:45;17;17;
30342;PMS5003;17145;49.902;8.680;2023-05-16T12:55:13;18;18;
30342;PMS5003;17145;49.902;8.680;2023-05-16T12:57:41;37;33;
30342;PMS5003;17145;49.902;8.680;2023-05-16T13:00:10;22;20;
30342;PMS5003;17145;49.902;8.680;2023-05-16T13:02:39;17;17;
30342;PMS5003;17145;49.902;8.680;2023-05-16T13:05:07;20;19;
30342;PMS5003;17145;49.902;8.680;2023-05-16T13:07:34;22;20;
30342;PMS5003;17145;49.902;8.680;2023-05-16T13:10:02;26;25;
30342;PMS5003;17145;49.902;8.680;2023-05-16T13:12:30;24;22;
30342;PMS5003;17145;49.902;8.680;2023-05-16T13:14:57;20;20;
30342;PMS5003;17145;49.902;8.680;2023-05-16T13:17:25;45;38;
30342;PMS5003;17145;49.902;8.680;2023-05-16T13:19:52;23;22;
30342;PMS5003;17145;49.902;8.680;2023-05-16T13:22:19;31;26;
30342;PMS5003;17145;49.902;8.680;2023-05-16T13:24:47;40;38;
30342;PMS5003;17145;49.902;8.680;2023-05-16T13:27:15;33;31;
30342;PMS5003;17145;49.902;8.680;2023-05-16T13:29:42;41;39;
30342;PMS5003;17145;49.902;8.680;2023-05-16T13:32:10;23;22;
30342;PMS5003;17145;49.902;8.680;2023-05-16T13:34:37;20;19;
30342;PMS5003;17145;49.902;8.680;2023-05-16T13:37:05;23;20;
30342;PMS5003;17145;49.902;8.680;2023-05-16T13:39:32;22;22;
30342;PMS5003;17145;49.902;8.680;2023-05-16T13:41:59;20;19;
30342;PMS5003;17145;49.902;8.680;2023-05-16T13:44:27;20;20;
30342;PMS5003;17145;49.902;8.680;2023-05-16T13:46:55;22;19;
30342;PMS5003;17145;49.902;8.680;2023-05-16T13:49:22;20;19;
30342;PMS5003;17145;49.902;8.680;2023-05-16T13:51:49;23;20;
30342;PMS5003;17145;49.902;8.680;2023-05-16T13:54:17;19;19;
30342;PMS5003;17145;49.902;8.680;2023-05-16T13:56:45;20;19;
30342;PMS5003;17145;49.902;8.680;2023-05-16T13:59:13;22;22;
30342;PMS5003;17145;49.902;8.680;2023-05-16T14:01:40;21;21;
30342;PMS5003;17145;49.902;8.680;2023-05-16T14:04:08;19;18;
30342;PMS5003;17145;49.902;8.680;2023-05-16T14:06:35;22;21;
30342;PMS5003;17145;49.902;8.680;2023-05-16T14:09:03;19;18;
30342;PMS5003;17145;49.902;8.680;2023-05-16T14:11:30;21;19;
30342;PMS5003;17145;49.902;8.680;2023-05-16T14:13:58;24;23;
30342;PMS5003;17145;49.902;8.680;2023-05-16T14:16:25;23;22;
30342;PMS5003;17145;49.902;8.680;2023-05-16T14:18:52;24;24;
30342;PMS5003;17145;49.902;8.680;2023-05-16T14:21:20;23;22;
30342;PMS5003;17145;49.902;8.680;2023-05-16T14:23:48;28;22;
30342;PMS5003;17145;49.902;8.680;2023-05-16T14:26:15;24;22;
30342;PMS5003;17145;49.902;8.680;2023-05-16T14:28:43;22;22;
30342;PMS5003;17145;49.902;8.680;2023-05-16T14:31:10;31;23;
30342;PMS5003;17145;49.902;8.680;2023-05-16T14:33:38;24;24;
30342;PMS5003;17145;49.902;8.680;2023-05-16T14:36:06;21;21;
30342;PMS5003;17145;49.902;8.680;2023-05-16T14:38:33;24;22;
30342;PMS5003;17145;49.902;8.680;2023-05-16T14:41:01;21;21;
30342;PMS5003;17145;49.902;8.680;2023-05-16T14:43:29;19;19;
30342;PMS5003;17145;49.902;8.680;2023-05-16T14:45:56;23;22;
30342;PMS5003;17145;49.902;8.680;2023-05-16T14:48:24;24;21;
30342;PMS5003;17145;49.902;8.680;2023-05-16T14:50:51;27;25;
30342;PMS5003;17145;49.902;8.680;2023-05-16T14:53:19;24;22;
30342;PMS5003;17145;49.902;8.680;2023-05-16T14:55:46;22;21;
30342;PMS5003;17145;49.902;8.680;2023-05-16T14:58:13;23;23;
30342;PMS5003;17145;49.902;8.680;2023-05-16T15:00:41;24;22;
30342;PMS5003;17145;49.902;8.680;2023-05-16T15:03:09;22;22;
30342;PMS5003;17145;49.902;8.680;2023-05-16T15:05:36;23;23;
30342;PMS5003;17145;49.902;8.680;2023-05-16T15:08:04;26;25;
30342;PMS5003;17145;49.902;8.680;2023-05-16T15:10:31;22;22;
30342;PMS5003;17145;49.902;8.680;2023-05-16T15:12:58;28;23;
30342;PMS5003;17145;49.902;8.680;2023-05-16T15:15:26;25;25;
30342;PMS5003;17145;49.902;8.680;2023-05-16T15:17:53;29;28;
30342;PMS5003;17145;49.902;8.680;2023-05-16T15:20:21;24;23;
30342;PMS5003;17145;49.902;8.680;2023-05-16T15:22:48;23;22;
30342;PMS5003;17145;49.902;8.680;2023-05-16T15:25:16;23;22;
30342;PMS5003;17145;49.902;8.680;2023-05-16T15:27:43;25;24;
30342;PMS5003;17145;49.902;8.680;2023-05-16T15:30:11;21;21;
30342;PMS5003;17145;49.902;8.680;2023-05-16T15:32:39;23;23;
30342;PMS5003;17145;49.902;8.680;2023-05-16T15:35:06;25;24;
30342;PMS5003;17145;49.902;8.680;2023-05-16T15:37:34;24;23;
30342;PMS5003;17145;49.902;8.680;2023-05-16T15:40:01;24;24;
30342;PMS5003;17145;49.902;8.680;2023-05-16T15:42:29;37;24;
30342;PMS5003;17145;49.902;8.680;2023-05-16T15:44:56;21;20;
30342;PMS5003;17145;49.902;8.680;2023-05-16T15:47:24;33;27;
30342;PMS5003;17145;49.902;8.680;2023-05-16T15:49:51;28;26;
30342;PMS5003;17145;49.902;8.680;2023-05-16T15:52:18;22;20;
30342;PMS5003;17145;49.902;8.680;2023-05-16T15:54:46;24;22;
30342;PMS5003;17145;49.902;8.680;2023-05-16T15:57:13;23;23;
30342;PMS5003;17145;49.902;8.680;2023-05-16T15:59:41;21;21;
30342;PMS5003;17145;49.902;8.680;2023-05-16T16:02:08;24;21;
30342;PMS5003;17145;49.902;8.680;2023-05-16T16:04:35;30;24;
30342;PMS5003;17145;49.902;8.680;2023-05-16T16:07:03;27;25;
30342;PMS5003;17145;49.902;8.680;2023-05-16T16:09:31;24;22;
30342;PMS5003;17145;49.902;8.680;2023-05-16T16:11:58;23;23;
30342;PMS5003;17145;49.902;8.680;2023-05-16T16:14:26;23;22;
30342;PMS5003;17145;49.902;8.680;2023-05-16T16:16:53;22;20;
30342;PMS5003;17145;49.902;8.680;2023-05-16T16:19:20;20;18;
30342;PMS5003;17145;49.902;8.680;2023-05-16T16:21:48;22;20;
30342;PMS5003;17145;49.902;8.680;2023-05-16T16:24:16;22;21;
30342;PMS5003;17145;49.902;8.680;2023-05-16T16:26:43;24;22;
30342;PMS5003;17145;49.902;8.680;2023-05-16T16:29:10;23;23;
30342;PMS5003;17145;49.902;8.680;2023-05-16T16:31:38;23;22;
30342;PMS5003;17145;49.902;8.680;2023-05-16T16:34:05;25;23;
30342;PMS5003;17145;49.902;8.680;2023-05-16T16:36:33;32;23;